Center Grove, Iowa
Current Conditions -  °F | °C
As of 2:53 AM on Monday 20 Oct 2014 (Local Time) from KDBQ Reporting Station
Clear Clear  
Wind Chill: 44°   Ceiling: Unl
Heat Index: 48°   Visibility: 10mi
Dew Point: 44°   Wind: 8mph
Humidity: 86%   Direction: 280°W
Pressure: 29.84"   Gusts: NA
Location:  42.549°N, 90.6988°W
Report Text: KDBQ 200753Z AUTO 28007KT 10SM CLR 09/07 A2984 RMK AO2 SLP105 T00890067 $
Loading
Personal Weather Stations






























Interactive Weather Map
Tropical Storm Tracking
New forecast layout! Learn more

10-Day Weather Forecast

Advertisements
Track Severe Weather on mobile